sensor_id;sensor_type;location;lat;lon;timestamp;P1;durP1;ratioP1;P2;durP2;ratioP2
71303;SDS011;59091;47.446;19.148;2023-02-14T00:01:22;40.03;;;18.88;;
71303;SDS011;59091;47.446;19.148;2023-02-14T00:03:47;42.40;;;19.25;;
71303;SDS011;59091;47.446;19.148;2023-02-14T00:06:13;39.30;;;19.70;;
71303;SDS011;59091;47.446;19.148;2023-02-14T00:08:39;36.03;;;17.85;;
71303;SDS011;59091;47.446;19.148;2023-02-14T00:11:08;36.35;;;17.25;;
71303;SDS011;59091;47.446;19.148;2023-02-14T00:13:35;38.03;;;18.02;;
71303;SDS011;59091;47.446;19.148;2023-02-14T00:16:00;41.80;;;17.75;;
71303;SDS011;59091;47.446;19.148;2023-02-14T00:18:25;37.83;;;17.42;;
71303;SDS011;59091;47.446;19.148;2023-02-14T00:21:11;37.20;;;16.27;;
71303;SDS011;59091;47.446;19.148;2023-02-14T00:23:37;34.38;;;16.75;;
71303;SDS011;59091;47.446;19.148;2023-02-14T00:26:02;36.30;;;17.40;;
71303;SDS011;59091;47.446;19.148;2023-02-14T00:28:28;40.28;;;17.08;;
71303;SDS011;59091;47.446;19.148;2023-02-14T00:30:55;33.78;;;16.77;;
71303;SDS011;59091;47.446;19.148;2023-02-14T00:33:25;35.25;;;16.42;;
71303;SDS011;59091;47.446;19.148;2023-02-14T00:35:50;31.80;;;16.55;;
71303;SDS011;59091;47.446;19.148;2023-02-14T00:38:16;42.85;;;17.42;;
71303;SDS011;59091;47.446;19.148;2023-02-14T00:40:41;31.23;;;15.50;;
71303;SDS011;59091;47.446;19.148;2023-02-14T00:43:07;36.15;;;15.00;;
71303;SDS011;59091;47.446;19.148;2023-02-14T00:45:32;28.08;;;15.60;;
71303;SDS011;59091;47.446;19.148;2023-02-14T00:47:58;36.28;;;16.92;;
71303;SDS011;59091;47.446;19.148;2023-02-14T00:50:23;32.30;;;15.52;;
71303;SDS011;59091;47.446;19.148;2023-02-14T00:52:48;33.30;;;14.95;;
71303;SDS011;59091;47.446;19.148;2023-02-14T00:55:14;37.15;;;16.10;;
71303;SDS011;59091;47.446;19.148;2023-02-14T00:57:39;31.27;;;14.00;;
71303;SDS011;59091;47.446;19.148;2023-02-14T01:00:05;25.80;;;13.32;;
71303;SDS011;59091;47.446;19.148;2023-02-14T01:02:31;22.63;;;11.70;;
71303;SDS011;59091;47.446;19.148;2023-02-14T01:04:56;26.17;;;12.40;;
71303;SDS011;59091;47.446;19.148;2023-02-14T01:07:21;26.85;;;11.35;;
71303;SDS011;59091;47.446;19.148;2023-02-14T01:09:47;27.02;;;11.45;;
71303;SDS011;59091;47.446;19.148;2023-02-14T01:12:12;25.20;;;11.05;;
71303;SDS011;59091;47.446;19.148;2023-02-14T01:14:38;25.73;;;11.63;;
71303;SDS011;59091;47.446;19.148;2023-02-14T01:17:03;24.17;;;11.57;;
71303;SDS011;59091;47.446;19.148;2023-02-14T01:19:29;23.98;;;11.23;;
71303;SDS011;59091;47.446;19.148;2023-02-14T01:21:54;23.20;;;10.80;;
71303;SDS011;59091;47.446;19.148;2023-02-14T01:24:20;24.67;;;11.98;;
71303;SDS011;59091;47.446;19.148;2023-02-14T01:26:45;23.25;;;10.65;;
71303;SDS011;59091;47.446;19.148;2023-02-14T01:29:10;22.77;;;10.73;;
71303;SDS011;59091;47.446;19.148;2023-02-14T01:31:36;26.05;;;11.73;;
71303;SDS011;59091;47.446;19.148;2023-02-14T01:34:02;24.50;;;11.48;;
71303;SDS011;59091;47.446;19.148;2023-02-14T01:36:29;27.58;;;10.65;;
71303;SDS011;59091;47.446;19.148;2023-02-14T01:39:01;28.02;;;11.63;;
71303;SDS011;59091;47.446;19.148;2023-02-14T01:41:30;27.33;;;12.23;;
71303;SDS011;59091;47.446;19.148;2023-02-14T01:46:28;27.45;;;11.90;;
71303;SDS011;59091;47.446;19.148;2023-02-14T01:49:04;22.17;;;10.75;;
71303;SDS011;59091;47.446;19.148;2023-02-14T01:51:35;20.70;;;11.02;;
71303;SDS011;59091;47.446;19.148;2023-02-14T01:54:05;30.55;;;12.05;;
71303;SDS011;59091;47.446;19.148;2023-02-14T01:56:34;23.58;;;11.20;;
71303;SDS011;59091;47.446;19.148;2023-02-14T01:59:04;26.75;;;10.60;;
71303;SDS011;59091;47.446;19.148;2023-02-14T02:01:32;26.48;;;11.35;;
71303;SDS011;59091;47.446;19.148;2023-02-14T02:03:58;21.98;;;10.80;;
71303;SDS011;59091;47.446;19.148;2023-02-14T02:06:38;22.83;;;10.90;;
71303;SDS011;59091;47.446;19.148;2023-02-14T02:11:56;24.30;;;11.77;;
71303;SDS011;59091;47.446;19.148;2023-02-14T02:14:22;26.10;;;11.70;;
71303;SDS011;59091;47.446;19.148;2023-02-14T02:16:55;24.30;;;11.63;;
71303;SDS011;59091;47.446;19.148;2023-02-14T02:36:24;25.23;;;11.95;;
71303;SDS011;59091;47.446;19.148;2023-02-14T02:44:20;21.58;;;10.80;;
71303;SDS011;59091;47.446;19.148;2023-02-14T02:47:10;25.73;;;10.73;;
71303;SDS011;59091;47.446;19.148;2023-02-14T02:50:48;22.20;;;11.20;;
71303;SDS011;59091;47.446;19.148;2023-02-14T02:55:59;25.08;;;11.40;;
71303;SDS011;59091;47.446;19.148;2023-02-14T02:59:03;20.58;;;10.85;;
71303;SDS011;59091;47.446;19.148;2023-02-14T03:01:42;29.08;;;12.13;;
71303;SDS011;59091;47.446;19.148;2023-02-14T03:04:12;24.27;;;10.10;;
71303;SDS011;59091;47.446;19.148;2023-02-14T03:06:57;25.42;;;11.50;;
71303;SDS011;59091;47.446;19.148;2023-02-14T03:11:57;24.42;;;11.68;;
71303;SDS011;59091;47.446;19.148;2023-02-14T03:14:34;26.88;;;11.40;;
71303;SDS011;59091;47.446;19.148;2023-02-14T03:20:03;24.45;;;11.40;;
71303;SDS011;59091;47.446;19.148;2023-02-14T03:31:19;23.38;;;11.70;;
71303;SDS011;59091;47.446;19.148;2023-02-14T03:33:59;25.45;;;12.00;;
71303;SDS011;59091;47.446;19.148;2023-02-14T03:36:51;21.02;;;10.75;;
71303;SDS011;59091;47.446;19.148;2023-02-14T03:39:23;31.58;;;12.25;;
71303;SDS011;59091;47.446;19.148;2023-02-14T03:41:58;24.42;;;11.77;;
71303;SDS011;59091;47.446;19.148;2023-02-14T03:44:28;27.55;;;12.07;;
71303;SDS011;59091;47.446;19.148;2023-02-14T03:46:57;26.75;;;12.32;;
71303;SDS011;59091;47.446;19.148;2023-02-14T03:49:27;23.55;;;11.50;;
71303;SDS011;59091;47.446;19.148;2023-02-14T03:51:56;28.50;;;11.38;;
71303;SDS011;59091;47.446;19.148;2023-02-14T03:54:25;25.65;;;12.18;;
71303;SDS011;59091;47.446;19.148;2023-02-14T03:56:56;25.30;;;10.95;;
71303;SDS011;59091;47.446;19.148;2023-02-14T03:59:26;29.45;;;12.45;;
71303;SDS011;59091;47.446;19.148;2023-02-14T04:02:04;24.25;;;11.02;;
71303;SDS011;59091;47.446;19.148;2023-02-14T04:04:34;23.50;;;11.73;;
71303;SDS011;59091;47.446;19.148;2023-02-14T04:07:13;23.63;;;10.80;;
71303;SDS011;59091;47.446;19.148;2023-02-14T04:09:40;22.38;;;10.90;;
71303;SDS011;59091;47.446;19.148;2023-02-14T04:12:07;27.80;;;14.18;;
71303;SDS011;59091;47.446;19.148;2023-02-14T04:14:33;31.75;;;16.23;;
71303;SDS011;59091;47.446;19.148;2023-02-14T04:16:59;37.33;;;16.67;;
71303;SDS011;59091;47.446;19.148;2023-02-14T04:22:08;39.00;;;17.70;;
71303;SDS011;59091;47.446;19.148;2023-02-14T04:24:33;35.40;;;16.70;;
71303;SDS011;59091;47.446;19.148;2023-02-14T04:26:59;50.55;;;22.67;;
71303;SDS011;59091;47.446;19.148;2023-02-14T04:29:34;60.78;;;26.67;;
71303;SDS011;59091;47.446;19.148;2023-02-14T04:32:00;65.00;;;28.52;;
71303;SDS011;59091;47.446;19.148;2023-02-14T04:34:26;58.67;;;26.33;;
71303;SDS011;59091;47.446;19.148;2023-02-14T04:36:51;62.60;;;25.52;;
71303;SDS011;59091;47.446;19.148;2023-02-14T04:39:17;53.35;;;23.65;;
71303;SDS011;59091;47.446;19.148;2023-02-14T04:41:42;50.45;;;22.02;;
71303;SDS011;59091;47.446;19.148;2023-02-14T04:44:07;56.75;;;23.38;;
71303;SDS011;59091;47.446;19.148;2023-02-14T04:46:33;48.33;;;21.75;;
71303;SDS011;59091;47.446;19.148;2023-02-14T04:48:58;52.72;;;22.65;;
71303;SDS011;59091;47.446;19.148;2023-02-14T04:51:24;47.95;;;22.38;;
71303;SDS011;59091;47.446;19.148;2023-02-14T04:53:49;51.13;;;20.98;;
71303;SDS011;59091;47.446;19.148;2023-02-14T04:56:14;46.55;;;20.38;;
71303;SDS011;59091;47.446;19.148;2023-02-14T04:58:40;44.50;;;20.15;;
71303;SDS011;59091;47.446;19.148;2023-02-14T05:01:05;40.78;;;20.10;;
71303;SDS011;59091;47.446;19.148;2023-02-14T05:03:31;47.75;;;20.67;;
71303;SDS011;59091;47.446;19.148;2023-02-14T05:05:56;43.90;;;19.98;;
71303;SDS011;59091;47.446;19.148;2023-02-14T05:08:21;45.60;;;20.42;;
71303;SDS011;59091;47.446;19.148;2023-02-14T05:10:47;42.50;;;19.25;;
71303;SDS011;59091;47.446;19.148;2023-02-14T05:13:12;46.42;;;19.48;;
71303;SDS011;59091;47.446;19.148;2023-02-14T05:15:38;37.47;;;17.67;;
71303;SDS011;59091;47.446;19.148;2023-02-14T05:18:03;47.20;;;19.50;;
71303;SDS011;59091;47.446;19.148;2023-02-14T05:20:29;41.58;;;19.35;;
71303;SDS011;59091;47.446;19.148;2023-02-14T05:22:55;42.30;;;19.15;;
71303;SDS011;59091;47.446;19.148;2023-02-14T05:25:23;47.13;;;19.77;;
71303;SDS011;59091;47.446;19.148;2023-02-14T05:27:49;44.88;;;19.35;;
71303;SDS011;59091;47.446;19.148;2023-02-14T05:30:14;43.15;;;19.60;;
71303;SDS011;59091;47.446;19.148;2023-02-14T05:32:40;43.85;;;19.52;;
71303;SDS011;59091;47.446;19.148;2023-02-14T05:35:06;36.28;;;17.80;;
71303;SDS011;59091;47.446;19.148;2023-02-14T05:37:31;43.20;;;19.60;;
71303;SDS011;59091;47.446;19.148;2023-02-14T05:39:57;35.47;;;17.63;;
71303;SDS011;59091;47.446;19.148;2023-02-14T05:42:22;43.28;;;18.75;;
71303;SDS011;59091;47.446;19.148;2023-02-14T05:44:47;37.63;;;16.48;;
71303;SDS011;59091;47.446;19.148;2023-02-14T05:47:13;35.05;;;16.38;;
71303;SDS011;59091;47.446;19.148;2023-02-14T05:49:39;31.42;;;14.63;;
71303;SDS011;59091;47.446;19.148;2023-02-14T05:52:04;35.17;;;15.75;;
71303;SDS011;59091;47.446;19.148;2023-02-14T05:54:30;21.67;;;10.20;;
71303;SDS011;59091;47.446;19.148;2023-02-14T05:56:55;45.10;;;15.57;;
71303;SDS011;59091;47.446;19.148;2023-02-14T05:59:21;33.00;;;14.35;;
71303;SDS011;59091;47.446;19.148;2023-02-14T06:01:46;33.33;;;14.63;;
71303;SDS011;59091;47.446;19.148;2023-02-14T06:04:12;33.90;;;14.20;;
71303;SDS011;59091;47.446;19.148;2023-02-14T06:06:37;34.95;;;14.52;;
71303;SDS011;59091;47.446;19.148;2023-02-14T06:09:02;42.55;;;15.13;;
71303;SDS011;59091;47.446;19.148;2023-02-14T06:11:28;31.80;;;14.43;;
71303;SDS011;59091;47.446;19.148;2023-02-14T06:13:53;32.17;;;14.05;;
71303;SDS011;59091;47.446;19.148;2023-02-14T06:16:19;26.00;;;12.95;;
71303;SDS011;59091;47.446;19.148;2023-02-14T06:18:44;29.75;;;14.45;;
71303;SDS011;59091;47.446;19.148;2023-02-14T06:21:09;35.13;;;14.43;;
71303;SDS011;59091;47.446;19.148;2023-02-14T06:23:35;36.35;;;15.95;;
71303;SDS011;59091;47.446;19.148;2023-02-14T06:26:00;31.80;;;15.55;;
71303;SDS011;59091;47.446;19.148;2023-02-14T06:28:26;34.28;;;16.23;;
71303;SDS011;59091;47.446;19.148;2023-02-14T06:30:51;35.63;;;16.02;;
71303;SDS011;59091;47.446;19.148;2023-02-14T06:33:16;37.33;;;16.13;;
71303;SDS011;59091;47.446;19.148;2023-02-14T06:35:42;41.55;;;18.52;;
71303;SDS011;59091;47.446;19.148;2023-02-14T06:38:07;40.40;;;17.67;;
71303;SDS011;59091;47.446;19.148;2023-02-14T06:40:33;38.90;;;18.13;;
71303;SDS011;59091;47.446;19.148;2023-02-14T06:42:58;38.35;;;18.85;;
71303;SDS011;59091;47.446;19.148;2023-02-14T06:45:24;43.15;;;18.90;;
71303;SDS011;59091;47.446;19.148;2023-02-14T06:47:49;26.40;;;12.63;;
71303;SDS011;59091;47.446;19.148;2023-02-14T06:50:14;47.28;;;18.55;;
71303;SDS011;59091;47.446;19.148;2023-02-14T06:52:40;42.72;;;19.73;;
71303;SDS011;59091;47.446;19.148;2023-02-14T06:55:06;42.90;;;20.20;;
71303;SDS011;59091;47.446;19.148;2023-02-14T06:57:32;46.25;;;21.95;;
71303;SDS011;59091;47.446;19.148;2023-02-14T06:59:58;53.78;;;24.23;;
71303;SDS011;59091;47.446;19.148;2023-02-14T07:02:23;58.30;;;26.60;;
71303;SDS011;59091;47.446;19.148;2023-02-14T07:04:48;52.78;;;26.92;;
71303;SDS011;59091;47.446;19.148;2023-02-14T07:07:14;75.93;;;32.65;;
71303;SDS011;59091;47.446;19.148;2023-02-14T07:09:39;64.97;;;29.65;;
71303;SDS011;59091;47.446;19.148;2023-02-14T07:12:05;57.50;;;27.00;;
71303;SDS011;59091;47.446;19.148;2023-02-14T07:14:30;59.08;;;28.25;;
71303;SDS011;59091;47.446;19.148;2023-02-14T07:16:56;67.60;;;30.75;;
71303;SDS011;59091;47.446;19.148;2023-02-14T07:19:21;47.38;;;23.02;;
71303;SDS011;59091;47.446;19.148;2023-02-14T07:21:47;51.03;;;22.20;;
71303;SDS011;59091;47.446;19.148;2023-02-14T07:24:12;59.80;;;24.50;;
71303;SDS011;59091;47.446;19.148;2023-02-14T07:26:38;49.63;;;23.45;;
71303;SDS011;59091;47.446;19.148;2023-02-14T07:29:03;47.17;;;22.77;;
71303;SDS011;59091;47.446;19.148;2023-02-14T07:31:29;46.72;;;21.55;;
71303;SDS011;59091;47.446;19.148;2023-02-14T07:33:54;46.38;;;19.90;;
71303;SDS011;59091;47.446;19.148;2023-02-14T07:36:21;42.17;;;19.88;;
71303;SDS011;59091;47.446;19.148;2023-02-14T07:38:47;48.58;;;20.60;;
71303;SDS011;59091;47.446;19.148;2023-02-14T07:41:12;37.80;;;19.50;;
71303;SDS011;59091;47.446;19.148;2023-02-14T07:43:37;36.25;;;18.30;;
71303;SDS011;59091;47.446;19.148;2023-02-14T07:46:03;43.83;;;19.35;;
71303;SDS011;59091;47.446;19.148;2023-02-14T07:48:29;43.30;;;20.23;;
71303;SDS011;59091;47.446;19.148;2023-02-14T07:50:55;40.53;;;19.60;;
71303;SDS011;59091;47.446;19.148;2023-02-14T07:53:21;44.60;;;21.33;;
71303;SDS011;59091;47.446;19.148;2023-02-14T07:55:48;49.08;;;22.95;;
71303;SDS011;59091;47.446;19.148;2023-02-14T07:58:14;46.17;;;22.65;;
71303;SDS011;59091;47.446;19.148;2023-02-14T08:00:40;46.38;;;23.25;;
71303;SDS011;59091;47.446;19.148;2023-02-14T08:03:05;44.85;;;21.80;;
71303;SDS011;59091;47.446;19.148;2023-02-14T08:05:31;46.55;;;21.02;;
71303;SDS011;59091;47.446;19.148;2023-02-14T08:07:56;45.40;;;22.20;;
71303;SDS011;59091;47.446;19.148;2023-02-14T08:10:22;42.83;;;20.75;;
71303;SDS011;59091;47.446;19.148;2023-02-14T08:12:47;42.30;;;21.60;;
71303;SDS011;59091;47.446;19.148;2023-02-14T08:15:26;46.92;;;20.60;;
71303;SDS011;59091;47.446;19.148;2023-02-14T08:18:11;45.42;;;20.95;;
71303;SDS011;59091;47.446;19.148;2023-02-14T08:20:36;44.05;;;19.33;;
71303;SDS011;59091;47.446;19.148;2023-02-14T08:23:02;40.92;;;18.92;;
71303;SDS011;59091;47.446;19.148;2023-02-14T08:25:27;39.85;;;19.77;;
71303;SDS011;59091;47.446;19.148;2023-02-14T08:27:53;41.78;;;21.13;;
71303;SDS011;59091;47.446;19.148;2023-02-14T08:30:19;40.83;;;20.30;;
71303;SDS011;59091;47.446;19.148;2023-02-14T08:32:45;41.08;;;19.40;;
71303;SDS011;59091;47.446;19.148;2023-02-14T08:35:11;42.03;;;20.10;;
71303;SDS011;59091;47.446;19.148;2023-02-14T08:37:36;40.15;;;19.15;;
71303;SDS011;59091;47.446;19.148;2023-02-14T08:40:02;32.15;;;17.27;;
71303;SDS011;59091;47.446;19.148;2023-02-14T08:42:27;33.58;;;17.20;;
71303;SDS011;59091;47.446;19.148;2023-02-14T08:44:53;30.75;;;16.27;;
71303;SDS011;59091;47.446;19.148;2023-02-14T08:47:20;35.55;;;16.15;;
71303;SDS011;59091;47.446;19.148;2023-02-14T08:49:46;41.00;;;15.88;;
71303;SDS011;59091;47.446;19.148;2023-02-14T08:52:11;33.72;;;14.93;;
71303;SDS011;59091;47.446;19.148;2023-02-14T08:54:36;30.70;;;14.75;;
71303;SDS011;59091;47.446;19.148;2023-02-14T08:57:02;35.55;;;15.57;;
71303;SDS011;59091;47.446;19.148;2023-02-14T08:59:28;28.30;;;13.05;;
71303;SDS011;59091;47.446;19.148;2023-02-14T09:01:53;28.30;;;12.95;;
71303;SDS011;59091;47.446;19.148;2023-02-14T09:04:18;24.10;;;12.45;;
71303;SDS011;59091;47.446;19.148;2023-02-14T09:06:44;24.65;;;13.30;;
71303;SDS011;59091;47.446;19.148;2023-02-14T09:09:09;24.90;;;12.20;;
71303;SDS011;59091;47.446;19.148;2023-02-14T09:11:35;25.40;;;11.27;;
71303;SDS011;59091;47.446;19.148;2023-02-14T09:14:00;23.73;;;12.18;;
71303;SDS011;59091;47.446;19.148;2023-02-14T09:16:26;26.42;;;12.57;;
71303;SDS011;59091;47.446;19.148;2023-02-14T09:18:51;23.50;;;11.75;;
71303;SDS011;59091;47.446;19.148;2023-02-14T09:21:24;24.40;;;10.75;;
71303;SDS011;59091;47.446;19.148;2023-02-14T09:23:50;21.38;;;10.85;;
71303;SDS011;59091;47.446;19.148;2023-02-14T09:26:22;17.02;;;9.90;;
71303;SDS011;59091;47.446;19.148;2023-02-14T09:28:47;23.38;;;10.15;;
71303;SDS011;59091;47.446;19.148;2023-02-14T09:31:17;22.05;;;10.95;;
71303;SDS011;59091;47.446;19.148;2023-02-14T09:33:44;22.60;;;10.05;;
71303;SDS011;59091;47.446;19.148;2023-02-14T09:36:11;19.58;;;11.20;;
71303;SDS011;59091;47.446;19.148;2023-02-14T09:38:42;18.58;;;10.05;;
71303;SDS011;59091;47.446;19.148;2023-02-14T09:41:08;19.48;;;10.43;;
71303;SDS011;59091;47.446;19.148;2023-02-14T09:44:01;22.38;;;11.60;;
71303;SDS011;59091;47.446;19.148;2023-02-14T09:46:30;16.45;;;10.00;;
71303;SDS011;59091;47.446;19.148;2023-02-14T09:49:04;18.98;;;9.50;;
71303;SDS011;59091;47.446;19.148;2023-02-14T09:51:37;15.27;;;8.53;;
71303;SDS011;59091;47.446;19.148;2023-02-14T09:54:12;21.38;;;9.68;;
71303;SDS011;59091;47.446;19.148;2023-02-14T09:56:54;20.48;;;9.10;;
71303;SDS011;59091;47.446;19.148;2023-02-14T10:07:54;18.75;;;10.35;;
71303;SDS011;59091;47.446;19.148;2023-02-14T10:10:37;17.75;;;9.73;;
71303;SDS011;59091;47.446;19.148;2023-02-14T10:15:57;19.23;;;10.45;;
71303;SDS011;59091;47.446;19.148;2023-02-14T10:18:38;20.05;;;10.80;;
71303;SDS011;59091;47.446;19.148;2023-02-14T10:21:06;16.50;;;9.77;;
71303;SDS011;59091;47.446;19.148;2023-02-14T10:23:48;11.50;;;7.82;;
71303;SDS011;59091;47.446;19.148;2023-02-14T10:26:22;13.02;;;7.90;;
71303;SDS011;59091;47.446;19.148;2023-02-14T10:28:52;12.57;;;8.35;;
71303;SDS011;59091;47.446;19.148;2023-02-14T10:33:59;12.52;;;8.30;;
71303;SDS011;59091;47.446;19.148;2023-02-14T10:36:45;11.25;;;7.45;;
71303;SDS011;59091;47.446;19.148;2023-02-14T10:55:14;18.55;;;10.27;;
71303;SDS011;59091;47.446;19.148;2023-02-14T10:57:45;17.52;;;9.70;;
71303;SDS011;59091;47.446;19.148;2023-02-14T11:00:25;15.93;;;9.25;;
71303;SDS011;59091;47.446;19.148;2023-02-14T11:02:58;15.88;;;9.18;;
71303;SDS011;59091;47.446;19.148;2023-02-14T11:05:37;15.02;;;9.20;;
71303;SDS011;59091;47.446;19.148;2023-02-14T11:10:43;21.85;;;10.35;;
71303;SDS011;59091;47.446;19.148;2023-02-14T11:13:32;19.23;;;11.25;;
71303;SDS011;59091;47.446;19.148;2023-02-14T11:16:03;18.25;;;9.93;;
71303;SDS011;59091;47.446;19.148;2023-02-14T11:18:32;17.05;;;8.82;;
71303;SDS011;59091;47.446;19.148;2023-02-14T11:21:15;12.60;;;7.13;;
71303;SDS011;59091;47.446;19.148;2023-02-14T11:23:48;17.25;;;8.10;;
71303;SDS011;59091;47.446;19.148;2023-02-14T11:26:22;12.63;;;7.72;;
71303;SDS011;59091;47.446;19.148;2023-02-14T11:28:51;14.68;;;8.43;;
71303;SDS011;59091;47.446;19.148;2023-02-14T11:31:32;15.80;;;8.73;;
71303;SDS011;59091;47.446;19.148;2023-02-14T11:34:01;14.00;;;8.20;;
71303;SDS011;59091;47.446;19.148;2023-02-14T11:36:29;17.02;;;9.68;;
71303;SDS011;59091;47.446;19.148;2023-02-14T11:39:05;22.65;;;9.95;;
71303;SDS011;59091;47.446;19.148;2023-02-14T11:41:52;20.48;;;10.45;;
71303;SDS011;59091;47.446;19.148;2023-02-14T11:44:23;15.50;;;10.15;;
71303;SDS011;59091;47.446;19.148;2023-02-14T11:46:51;15.23;;;9.68;;
71303;SDS011;59091;47.446;19.148;2023-02-14T11:51:57;17.67;;;9.88;;
71303;SDS011;59091;47.446;19.148;2023-02-14T11:54:32;22.38;;;10.13;;
71303;SDS011;59091;47.446;19.148;2023-02-14T11:57:06;17.88;;;9.90;;
71303;SDS011;59091;47.446;19.148;2023-02-14T11:59:48;17.38;;;9.63;;
71303;SDS011;59091;47.446;19.148;2023-02-14T12:04:55;19.98;;;10.90;;
71303;SDS011;59091;47.446;19.148;2023-02-14T12:07:28;20.40;;;10.57;;
71303;SDS011;59091;47.446;19.148;2023-02-14T12:12:54;18.30;;;9.70;;
71303;SDS011;59091;47.446;19.148;2023-02-14T12:17:48;18.13;;;10.20;;
71303;SDS011;59091;47.446;19.148;2023-02-14T12:20:22;22.63;;;10.73;;
71303;SDS011;59091;47.446;19.148;2023-02-14T12:23:23;21.05;;;10.60;;
71303;SDS011;59091;47.446;19.148;2023-02-14T12:26:25;20.77;;;11.20;;
71303;SDS011;59091;47.446;19.148;2023-02-14T12:28:56;17.50;;;10.82;;
71303;SDS011;59091;47.446;19.148;2023-02-14T12:31:29;20.40;;;10.95;;
71303;SDS011;59091;47.446;19.148;2023-02-14T12:33:55;17.90;;;11.32;;
71303;SDS011;59091;47.446;19.148;2023-02-14T12:36:28;19.70;;;10.98;;
71303;SDS011;59091;47.446;19.148;2023-02-14T12:47:15;16.33;;;9.45;;
71303;SDS011;59091;47.446;19.148;2023-02-14T13:08:02;16.38;;;9.52;;
71303;SDS011;59091;47.446;19.148;2023-02-14T13:10:50;19.88;;;10.43;;
71303;SDS011;59091;47.446;19.148;2023-02-14T13:22:14;20.75;;;10.52;;
71303;SDS011;59091;47.446;19.148;2023-02-14T13:24:46;22.80;;;11.25;;
71303;SDS011;59091;47.446;19.148;2023-02-14T13:27:20;19.50;;;9.65;;
71303;SDS011;59091;47.446;19.148;2023-02-14T13:30:02;16.90;;;9.48;;
71303;SDS011;59091;47.446;19.148;2023-02-14T13:32:32;20.63;;;9.63;;
71303;SDS011;59091;47.446;19.148;2023-02-14T13:35:03;18.65;;;9.75;;
71303;SDS011;59091;47.446;19.148;2023-02-14T13:37:30;17.05;;;9.10;;
71303;SDS011;59091;47.446;19.148;2023-02-14T13:39:58;16.23;;;8.63;;
71303;SDS011;59091;47.446;19.148;2023-02-14T13:48:17;16.15;;;8.98;;
71303;SDS011;59091;47.446;19.148;2023-02-14T13:58:48;13.68;;;8.77;;
71303;SDS011;59091;47.446;19.148;2023-02-14T14:04:39;13.43;;;8.57;;
71303;SDS011;59091;47.446;19.148;2023-02-14T14:17:36;15.98;;;8.13;;
71303;SDS011;59091;47.446;19.148;2023-02-14T14:20:28;14.73;;;8.45;;
71303;SDS011;59091;47.446;19.148;2023-02-14T14:22:57;17.00;;;8.13;;
71303;SDS011;59091;47.446;19.148;2023-02-14T14:25:35;14.00;;;8.07;;
71303;SDS011;59091;47.446;19.148;2023-02-14T14:28:03;13.63;;;7.90;;
71303;SDS011;59091;47.446;19.148;2023-02-14T14:30:41;16.88;;;8.65;;
71303;SDS011;59091;47.446;19.148;2023-02-14T14:33:11;15.00;;;8.40;;
71303;SDS011;59091;47.446;19.148;2023-02-14T14:35:55;14.30;;;8.70;;
71303;SDS011;59091;47.446;19.148;2023-02-14T14:38:26;13.27;;;8.18;;
71303;SDS011;59091;47.446;19.148;2023-02-14T14:40:52;21.33;;;9.52;;
71303;SDS011;59091;47.446;19.148;2023-02-14T14:43:28;13.95;;;8.27;;
71303;SDS011;59091;47.446;19.148;2023-02-14T14:45:54;13.35;;;8.30;;
71303;SDS011;59091;47.446;19.148;2023-02-14T14:48:36;17.23;;;8.73;;
71303;SDS011;59091;47.446;19.148;2023-02-14T14:51:05;16.20;;;8.75;;
71303;SDS011;59091;47.446;19.148;2023-02-14T14:53:46;18.52;;;8.82;;
71303;SDS011;59091;47.446;19.148;2023-02-14T14:56:18;14.95;;;8.20;;
71303;SDS011;59091;47.446;19.148;2023-02-14T14:58:47;14.38;;;8.88;;
71303;SDS011;59091;47.446;19.148;2023-02-14T15:01:26;15.27;;;8.93;;
71303;SDS011;59091;47.446;19.148;2023-02-14T15:06:45;14.13;;;7.93;;
71303;SDS011;59091;47.446;19.148;2023-02-14T15:09:29;15.52;;;9.27;;
71303;SDS011;59091;47.446;19.148;2023-02-14T15:11:57;17.13;;;8.93;;
71303;SDS011;59091;47.446;19.148;2023-02-14T15:14:43;17.23;;;9.52;;
71303;SDS011;59091;47.446;19.148;2023-02-14T15:17:19;16.95;;;9.80;;
71303;SDS011;59091;47.446;19.148;2023-02-14T15:20:03;20.33;;;10.65;;
71303;SDS011;59091;47.446;19.148;2023-02-14T15:22:50;21.48;;;10.65;;
71303;SDS011;59091;47.446;19.148;2023-02-14T15:25:21;18.52;;;10.35;;
71303;SDS011;59091;47.446;19.148;2023-02-14T15:27:50;25.25;;;10.55;;
71303;SDS011;59091;47.446;19.148;2023-02-14T15:32:50;19.73;;;10.43;;
71303;SDS011;59091;47.446;19.148;2023-02-14T15:35:17;19.15;;;10.65;;
71303;SDS011;59091;47.446;19.148;2023-02-14T15:37:48;19.33;;;10.68;;
71303;SDS011;59091;47.446;19.148;2023-02-14T15:40:15;18.83;;;10.65;;
71303;SDS011;59091;47.446;19.148;2023-02-14T15:42:43;22.30;;;11.55;;
71303;SDS011;59091;47.446;19.148;2023-02-14T15:45:19;21.48;;;11.50;;
71303;SDS011;59091;47.446;19.148;2023-02-14T15:47:55;27.33;;;10.65;;
71303;SDS011;59091;47.446;19.148;2023-02-14T15:50:32;19.75;;;11.18;;
71303;SDS011;59091;47.446;19.148;2023-02-14T15:53:06;22.67;;;12.73;;
71303;SDS011;59091;47.446;19.148;2023-02-14T15:55:44;30.48;;;12.82;;
71303;SDS011;59091;47.446;19.148;2023-02-14T15:58:17;26.88;;;12.25;;
71303;SDS011;59091;47.446;19.148;2023-02-14T16:00:46;21.20;;;12.13;;
71303;SDS011;59091;47.446;19.148;2023-02-14T16:03:19;25.88;;;12.88;;
71303;SDS011;59091;47.446;19.148;2023-02-14T16:05:48;23.42;;;12.32;;
71303;SDS011;59091;47.446;19.148;2023-02-14T16:11:04;22.73;;;13.07;;
71303;SDS011;59091;47.446;19.148;2023-02-14T16:13:45;54.70;;;26.00;;
71303;SDS011;59091;47.446;19.148;2023-02-14T16:16:12;53.72;;;25.67;;
71303;SDS011;59091;47.446;19.148;2023-02-14T16:18:45;41.97;;;18.77;;
71303;SDS011;59091;47.446;19.148;2023-02-14T16:21:19;48.75;;;21.52;;
71303;SDS011;59091;47.446;19.148;2023-02-14T16:26:42;65.57;;;30.27;;
71303;SDS011;59091;47.446;19.148;2023-02-14T16:29:12;71.60;;;33.20;;
71303;SDS011;59091;47.446;19.148;2023-02-14T16:31:47;76.20;;;33.38;;
71303;SDS011;59091;47.446;19.148;2023-02-14T16:34:13;71.65;;;31.05;;
71303;SDS011;59091;47.446;19.148;2023-02-14T16:36:39;68.88;;;30.77;;
71303;SDS011;59091;47.446;19.148;2023-02-14T16:39:05;62.30;;;29.92;;
71303;SDS011;59091;47.446;19.148;2023-02-14T16:41:42;55.90;;;27.05;;
71303;SDS011;59091;47.446;19.148;2023-02-14T16:44:12;54.65;;;27.40;;
71303;SDS011;59091;47.446;19.148;2023-02-14T16:46:42;53.40;;;25.85;;
71303;SDS011;59091;47.446;19.148;2023-02-14T16:49:09;46.22;;;24.42;;
71303;SDS011;59091;47.446;19.148;2023-02-14T16:51:40;46.90;;;22.58;;
71303;SDS011;59091;47.446;19.148;2023-02-14T16:54:10;47.20;;;22.40;;
71303;SDS011;59091;47.446;19.148;2023-02-14T16:56:52;51.47;;;22.10;;
71303;SDS011;59091;47.446;19.148;2023-02-14T16:59:20;47.25;;;20.67;;
71303;SDS011;59091;47.446;19.148;2023-02-14T17:01:46;45.45;;;20.70;;
71303;SDS011;59091;47.446;19.148;2023-02-14T17:04:12;52.00;;;22.42;;
71303;SDS011;59091;47.446;19.148;2023-02-14T17:06:39;46.50;;;21.45;;
71303;SDS011;59091;47.446;19.148;2023-02-14T17:09:10;45.03;;;20.70;;
71303;SDS011;59091;47.446;19.148;2023-02-14T17:11:39;47.58;;;21.75;;